sensor_id;sensor_type;location;lat;lon;timestamp;P1;durP1;ratioP1;P2;durP2;ratioP2
21624;SDS011;10974;51.034;3.744;2024-02-21T00:02:22;1.97;;;1.40;;
21624;SDS011;10974;51.034;3.744;2024-02-21T00:04:49;1.37;;;1.27;;
21624;SDS011;10974;51.034;3.744;2024-02-21T00:07:15;3.03;;;1.50;;
21624;SDS011;10974;51.034;3.744;2024-02-21T00:09:41;1.53;;;1.40;;
21624;SDS011;10974;51.034;3.744;2024-02-21T00:12:08;5.00;;;1.87;;
21624;SDS011;10974;51.034;3.744;2024-02-21T00:14:34;5.13;;;1.73;;
21624;SDS011;10974;51.034;3.744;2024-02-21T00:17:00;1.70;;;1.60;;
21624;SDS011;10974;51.034;3.744;2024-02-21T00:19:26;2.63;;;1.57;;
21624;SDS011;10974;51.034;3.744;2024-02-21T00:21:52;3.43;;;1.67;;
21624;SDS011;10974;51.034;3.744;2024-02-21T00:24:18;2.10;;;1.77;;
21624;SDS011;10974;51.034;3.744;2024-02-21T00:26:44;2.77;;;2.23;;
21624;SDS011;10974;51.034;3.744;2024-02-21T00:29:10;5.28;;;2.60;;
21624;SDS011;10974;51.034;3.744;2024-02-21T00:31:36;3.10;;;2.30;;
21624;SDS011;10974;51.034;3.744;2024-02-21T00:34:02;3.23;;;1.77;;
21624;SDS011;10974;51.034;3.744;2024-02-21T00:36:28;3.87;;;2.60;;
21624;SDS011;10974;51.034;3.744;2024-02-21T00:38:54;3.20;;;2.53;;
21624;SDS011;10974;51.034;3.744;2024-02-21T00:41:20;5.47;;;2.20;;
21624;SDS011;10974;51.034;3.744;2024-02-21T00:43:46;4.00;;;2.50;;
21624;SDS011;10974;51.034;3.744;2024-02-21T00:46:15;6.03;;;2.50;;
21624;SDS011;10974;51.034;3.744;2024-02-21T00:48:41;6.03;;;3.03;;
21624;SDS011;10974;51.034;3.744;2024-02-21T00:51:07;7.50;;;2.87;;
21624;SDS011;10974;51.034;3.744;2024-02-21T00:53:33;8.60;;;3.23;;
21624;SDS011;10974;51.034;3.744;2024-02-21T00:55:59;8.10;;;3.40;;
21624;SDS011;10974;51.034;3.744;2024-02-21T00:58:25;4.83;;;2.70;;
21624;SDS011;10974;51.034;3.744;2024-02-21T01:00:51;6.10;;;3.33;;
21624;SDS011;10974;51.034;3.744;2024-02-21T01:03:17;6.50;;;2.63;;
21624;SDS011;10974;51.034;3.744;2024-02-21T01:05:43;4.40;;;2.97;;
21624;SDS011;10974;51.034;3.744;2024-02-21T01:08:09;8.40;;;2.80;;
21624;SDS011;10974;51.034;3.744;2024-02-21T01:10:35;4.87;;;2.73;;
21624;SDS011;10974;51.034;3.744;2024-02-21T01:13:01;4.90;;;2.63;;
21624;SDS011;10974;51.034;3.744;2024-02-21T01:15:27;3.83;;;2.80;;
21624;SDS011;10974;51.034;3.744;2024-02-21T01:17:53;7.70;;;3.03;;
21624;SDS011;10974;51.034;3.744;2024-02-21T01:20:22;7.57;;;3.57;;
21624;SDS011;10974;51.034;3.744;2024-02-21T01:22:48;9.40;;;3.17;;
21624;SDS011;10974;51.034;3.744;2024-02-21T01:25:14;4.40;;;2.63;;
21624;SDS011;10974;51.034;3.744;2024-02-21T01:27:40;7.40;;;3.10;;
21624;SDS011;10974;51.034;3.744;2024-02-21T01:30:07;6.83;;;2.50;;
21624;SDS011;10974;51.034;3.744;2024-02-21T01:32:33;5.67;;;2.73;;
21624;SDS011;10974;51.034;3.744;2024-02-21T01:34:59;5.67;;;3.03;;
21624;SDS011;10974;51.034;3.744;2024-02-21T01:37:25;5.30;;;2.97;;
21624;SDS011;10974;51.034;3.744;2024-02-21T01:39:51;7.77;;;2.80;;
21624;SDS011;10974;51.034;3.744;2024-02-21T01:42:17;10.67;;;2.63;;
21624;SDS011;10974;51.034;3.744;2024-02-21T01:44:43;6.00;;;2.90;;
21624;SDS011;10974;51.034;3.744;2024-02-21T01:47:10;5.67;;;2.13;;
21624;SDS011;10974;51.034;3.744;2024-02-21T01:49:38;8.83;;;2.50;;
21624;SDS011;10974;51.034;3.744;2024-02-21T01:52:05;3.80;;;2.10;;
21624;SDS011;10974;51.034;3.744;2024-02-21T01:54:31;4.77;;;2.50;;
21624;SDS011;10974;51.034;3.744;2024-02-21T01:56:57;4.70;;;2.63;;
21624;SDS011;10974;51.034;3.744;2024-02-21T01:59:23;5.87;;;2.30;;
21624;SDS011;10974;51.034;3.744;2024-02-21T02:01:50;5.07;;;2.17;;
21624;SDS011;10974;51.034;3.744;2024-02-21T02:04:19;4.93;;;2.50;;
21624;SDS011;10974;51.034;3.744;2024-02-21T02:06:46;8.07;;;2.57;;
21624;SDS011;10974;51.034;3.744;2024-02-21T02:09:12;7.70;;;2.67;;
21624;SDS011;10974;51.034;3.744;2024-02-21T02:11:38;7.13;;;3.30;;
21624;SDS011;10974;51.034;3.744;2024-02-21T02:14:04;7.57;;;2.80;;
21624;SDS011;10974;51.034;3.744;2024-02-21T02:16:30;3.40;;;2.50;;
21624;SDS011;10974;51.034;3.744;2024-02-21T02:18:56;7.27;;;2.13;;
21624;SDS011;10974;51.034;3.744;2024-02-21T02:21:23;5.80;;;2.40;;
21624;SDS011;10974;51.034;3.744;2024-02-21T02:23:51;6.47;;;2.70;;
21624;SDS011;10974;51.034;3.744;2024-02-21T02:26:17;9.20;;;2.70;;
21624;SDS011;10974;51.034;3.744;2024-02-21T02:28:43;5.00;;;2.83;;
21624;SDS011;10974;51.034;3.744;2024-02-21T02:31:09;8.67;;;2.67;;
21624;SDS011;10974;51.034;3.744;2024-02-21T02:33:36;8.90;;;3.27;;
21624;SDS011;10974;51.034;3.744;2024-02-21T02:36:02;6.73;;;2.70;;
21624;SDS011;10974;51.034;3.744;2024-02-21T02:38:28;11.10;;;3.17;;
21624;SDS011;10974;51.034;3.744;2024-02-21T02:40:54;5.83;;;2.80;;
21624;SDS011;10974;51.034;3.744;2024-02-21T02:43:20;9.60;;;3.40;;
21624;SDS011;10974;51.034;3.744;2024-02-21T02:45:46;7.73;;;3.30;;
21624;SDS011;10974;51.034;3.744;2024-02-21T02:48:12;12.00;;;2.60;;
21624;SDS011;10974;51.034;3.744;2024-02-21T02:50:38;6.83;;;2.87;;
21624;SDS011;10974;51.034;3.744;2024-02-21T02:53:04;5.17;;;2.87;;
21624;SDS011;10974;51.034;3.744;2024-02-21T02:55:31;12.23;;;4.90;;
21624;SDS011;10974;51.034;3.744;2024-02-21T02:57:56;10.20;;;2.67;;
21624;SDS011;10974;51.034;3.744;2024-02-21T03:00:23;3.80;;;3.10;;
21624;SDS011;10974;51.034;3.744;2024-02-21T03:02:49;7.83;;;3.10;;
21624;SDS011;10974;51.034;3.744;2024-02-21T03:05:16;6.23;;;3.03;;
21624;SDS011;10974;51.034;3.744;2024-02-21T03:07:43;11.30;;;3.60;;
21624;SDS011;10974;51.034;3.744;2024-02-21T03:10:09;7.30;;;3.30;;
21624;SDS011;10974;51.034;3.744;2024-02-21T03:12:36;7.70;;;2.87;;
21624;SDS011;10974;51.034;3.744;2024-02-21T03:15:02;5.87;;;3.10;;
21624;SDS011;10974;51.034;3.744;2024-02-21T03:17:28;15.07;;;3.93;;
21624;SDS011;10974;51.034;3.744;2024-02-21T03:19:54;11.33;;;3.60;;
21624;SDS011;10974;51.034;3.744;2024-02-21T03:22:21;10.47;;;3.40;;
21624;SDS011;10974;51.034;3.744;2024-02-21T03:24:47;7.80;;;3.17;;
21624;SDS011;10974;51.034;3.744;2024-02-21T03:27:13;4.87;;;2.70;;
21624;SDS011;10974;51.034;3.744;2024-02-21T03:29:39;8.10;;;3.20;;
21624;SDS011;10974;51.034;3.744;2024-02-21T03:32:05;10.03;;;3.27;;
21624;SDS011;10974;51.034;3.744;2024-02-21T03:34:31;6.00;;;3.00;;
21624;SDS011;10974;51.034;3.744;2024-02-21T03:36:57;7.60;;;2.90;;
21624;SDS011;10974;51.034;3.744;2024-02-21T03:39:24;13.10;;;3.90;;
21624;SDS011;10974;51.034;3.744;2024-02-21T03:41:50;9.93;;;3.80;;
21624;SDS011;10974;51.034;3.744;2024-02-21T03:44:16;11.60;;;4.40;;
21624;SDS011;10974;51.034;3.744;2024-02-21T03:46:43;8.53;;;3.40;;
21624;SDS011;10974;51.034;3.744;2024-02-21T03:49:09;8.03;;;3.83;;
21624;SDS011;10974;51.034;3.744;2024-02-21T03:51:35;5.23;;;2.73;;
21624;SDS011;10974;51.034;3.744;2024-02-21T03:54:01;5.00;;;3.00;;
21624;SDS011;10974;51.034;3.744;2024-02-21T03:56:27;6.13;;;3.27;;
21624;SDS011;10974;51.034;3.744;2024-02-21T03:58:53;7.40;;;3.60;;
21624;SDS011;10974;51.034;3.744;2024-02-21T04:01:19;6.43;;;3.60;;
21624;SDS011;10974;51.034;3.744;2024-02-21T04:03:45;18.37;;;3.67;;
21624;SDS011;10974;51.034;3.744;2024-02-21T04:06:11;10.40;;;3.50;;
21624;SDS011;10974;51.034;3.744;2024-02-21T04:08:37;7.90;;;3.80;;
21624;SDS011;10974;51.034;3.744;2024-02-21T04:11:03;8.80;;;4.20;;
21624;SDS011;10974;51.034;3.744;2024-02-21T04:13:29;6.37;;;3.47;;
21624;SDS011;10974;51.034;3.744;2024-02-21T04:15:55;6.33;;;3.97;;
21624;SDS011;10974;51.034;3.744;2024-02-21T04:18:22;12.80;;;4.40;;
21624;SDS011;10974;51.034;3.744;2024-02-21T04:20:48;7.83;;;4.03;;
21624;SDS011;10974;51.034;3.744;2024-02-21T04:23:14;6.97;;;4.30;;
21624;SDS011;10974;51.034;3.744;2024-02-21T04:25:40;10.40;;;4.63;;
21624;SDS011;10974;51.034;3.744;2024-02-21T04:28:06;8.63;;;4.07;;
21624;SDS011;10974;51.034;3.744;2024-02-21T04:30:32;7.60;;;4.00;;
21624;SDS011;10974;51.034;3.744;2024-02-21T04:32:58;12.67;;;3.90;;
21624;SDS011;10974;51.034;3.744;2024-02-21T04:35:24;10.70;;;3.97;;
21624;SDS011;10974;51.034;3.744;2024-02-21T04:37:50;8.90;;;4.10;;
21624;SDS011;10974;51.034;3.744;2024-02-21T04:40:16;6.03;;;3.53;;
21624;SDS011;10974;51.034;3.744;2024-02-21T04:42:42;9.10;;;4.23;;
21624;SDS011;10974;51.034;3.744;2024-02-21T04:45:08;7.20;;;3.70;;
21624;SDS011;10974;51.034;3.744;2024-02-21T04:47:34;8.60;;;4.33;;
21624;SDS011;10974;51.034;3.744;2024-02-21T04:50:01;6.90;;;4.10;;
21624;SDS011;10974;51.034;3.744;2024-02-21T04:52:27;9.70;;;4.30;;
21624;SDS011;10974;51.034;3.744;2024-02-21T04:54:53;8.30;;;3.90;;
21624;SDS011;10974;51.034;3.744;2024-02-21T04:57:19;10.07;;;4.20;;
21624;SDS011;10974;51.034;3.744;2024-02-21T04:59:45;5.97;;;3.60;;
21624;SDS011;10974;51.034;3.744;2024-02-21T05:02:14;8.43;;;4.03;;
21624;SDS011;10974;51.034;3.744;2024-02-21T05:04:41;7.40;;;4.33;;
21624;SDS011;10974;51.034;3.744;2024-02-21T05:07:07;9.10;;;4.03;;
21624;SDS011;10974;51.034;3.744;2024-02-21T05:09:35;11.07;;;4.20;;
21624;SDS011;10974;51.034;3.744;2024-02-21T05:12:02;7.63;;;4.10;;
21624;SDS011;10974;51.034;3.744;2024-02-21T05:14:28;12.23;;;3.87;;
21624;SDS011;10974;51.034;3.744;2024-02-21T05:16:54;9.53;;;3.97;;
21624;SDS011;10974;51.034;3.744;2024-02-21T05:19:20;5.87;;;3.10;;
21624;SDS011;10974;51.034;3.744;2024-02-21T05:21:46;4.73;;;3.23;;
21624;SDS011;10974;51.034;3.744;2024-02-21T05:24:12;10.70;;;3.30;;
21624;SDS011;10974;51.034;3.744;2024-02-21T05:26:38;9.43;;;3.70;;
21624;SDS011;10974;51.034;3.744;2024-02-21T05:29:04;6.10;;;3.03;;
21624;SDS011;10974;51.034;3.744;2024-02-21T05:34:16;10.07;;;4.60;;
21624;SDS011;10974;51.034;3.744;2024-02-21T05:36:42;6.23;;;3.53;;
21624;SDS011;10974;51.034;3.744;2024-02-21T05:39:08;6.37;;;3.10;;
21624;SDS011;10974;51.034;3.744;2024-02-21T05:41:34;7.53;;;3.20;;
21624;SDS011;10974;51.034;3.744;2024-02-21T05:44:00;5.27;;;3.20;;
21624;SDS011;10974;51.034;3.744;2024-02-21T05:46:26;6.07;;;3.27;;
21624;SDS011;10974;51.034;3.744;2024-02-21T05:48:53;5.37;;;3.27;;
21624;SDS011;10974;51.034;3.744;2024-02-21T05:51:19;6.60;;;3.57;;
21624;SDS011;10974;51.034;3.744;2024-02-21T05:53:45;9.07;;;4.23;;
21624;SDS011;10974;51.034;3.744;2024-02-21T05:56:11;10.00;;;3.80;;
21624;SDS011;10974;51.034;3.744;2024-02-21T05:58:37;7.27;;;4.00;;
21624;SDS011;10974;51.034;3.744;2024-02-21T06:01:03;8.33;;;4.10;;
21624;SDS011;10974;51.034;3.744;2024-02-21T06:03:31;13.30;;;4.27;;
21624;SDS011;10974;51.034;3.744;2024-02-21T06:05:58;8.20;;;3.80;;
21624;SDS011;10974;51.034;3.744;2024-02-21T06:08:24;6.80;;;4.20;;
21624;SDS011;10974;51.034;3.744;2024-02-21T06:10:50;14.90;;;4.27;;
21624;SDS011;10974;51.034;3.744;2024-02-21T06:13:19;10.33;;;4.23;;
21624;SDS011;10974;51.034;3.744;2024-02-21T06:15:46;7.20;;;4.20;;
21624;SDS011;10974;51.034;3.744;2024-02-21T06:18:12;11.50;;;5.17;;
21624;SDS011;10974;51.034;3.744;2024-02-21T06:20:38;6.40;;;4.03;;
21624;SDS011;10974;51.034;3.744;2024-02-21T06:23:05;8.90;;;4.10;;
21624;SDS011;10974;51.034;3.744;2024-02-21T06:25:32;9.40;;;5.10;;
21624;SDS011;10974;51.034;3.744;2024-02-21T06:27:58;10.37;;;5.50;;
21624;SDS011;10974;51.034;3.744;2024-02-21T06:30:24;9.00;;;5.57;;
21624;SDS011;10974;51.034;3.744;2024-02-21T06:32:50;11.77;;;5.07;;
21624;SDS011;10974;51.034;3.744;2024-02-21T06:35:16;9.10;;;5.50;;
21624;SDS011;10974;51.034;3.744;2024-02-21T06:37:42;9.97;;;5.80;;
21624;SDS011;10974;51.034;3.744;2024-02-21T06:40:10;10.10;;;5.43;;
21624;SDS011;10974;51.034;3.744;2024-02-21T06:42:36;9.00;;;4.83;;
21624;SDS011;10974;51.034;3.744;2024-02-21T06:45:02;11.57;;;6.23;;
21624;SDS011;10974;51.034;3.744;2024-02-21T06:47:28;9.67;;;5.00;;
21624;SDS011;10974;51.034;3.744;2024-02-21T06:49:55;9.60;;;4.73;;
21624;SDS011;10974;51.034;3.744;2024-02-21T06:52:21;10.73;;;5.20;;
21624;SDS011;10974;51.034;3.744;2024-02-21T06:54:47;6.50;;;4.53;;
21624;SDS011;10974;51.034;3.744;2024-02-21T06:57:14;9.00;;;5.03;;
21624;SDS011;10974;51.034;3.744;2024-02-21T06:59:40;9.93;;;4.70;;
21624;SDS011;10974;51.034;3.744;2024-02-21T07:02:06;10.50;;;4.83;;
21624;SDS011;10974;51.034;3.744;2024-02-21T07:04:33;10.27;;;4.30;;
21624;SDS011;10974;51.034;3.744;2024-02-21T07:06:59;10.70;;;4.60;;
21624;SDS011;10974;51.034;3.744;2024-02-21T07:09:25;8.37;;;4.00;;
21624;SDS011;10974;51.034;3.744;2024-02-21T07:11:53;9.27;;;4.00;;
21624;SDS011;10974;51.034;3.744;2024-02-21T07:14:19;6.63;;;3.93;;
21624;SDS011;10974;51.034;3.744;2024-02-21T07:16:45;10.43;;;3.73;;
21624;SDS011;10974;51.034;3.744;2024-02-21T07:19:12;5.40;;;3.90;;
21624;SDS011;10974;51.034;3.744;2024-02-21T07:21:38;4.80;;;3.90;;
21624;SDS011;10974;51.034;3.744;2024-02-21T07:24:06;8.17;;;3.97;;
21624;SDS011;10974;51.034;3.744;2024-02-21T07:26:32;7.30;;;4.33;;
21624;SDS011;10974;51.034;3.744;2024-02-21T07:28:58;13.53;;;5.10;;
21624;SDS011;10974;51.034;3.744;2024-02-21T07:31:25;11.63;;;4.87;;
21624;SDS011;10974;51.034;3.744;2024-02-21T07:33:51;5.03;;;3.87;;
21624;SDS011;10974;51.034;3.744;2024-02-21T07:36:25;5.33;;;4.10;;
21624;SDS011;10974;51.034;3.744;2024-02-21T07:38:51;7.00;;;4.60;;
21624;SDS011;10974;51.034;3.744;2024-02-21T07:41:17;5.20;;;3.83;;
21624;SDS011;10974;51.034;3.744;2024-02-21T07:43:43;7.07;;;4.50;;
21624;SDS011;10974;51.034;3.744;2024-02-21T07:46:09;7.27;;;4.47;;
21624;SDS011;10974;51.034;3.744;2024-02-21T07:48:35;6.93;;;4.40;;
21624;SDS011;10974;51.034;3.744;2024-02-21T07:51:01;13.60;;;6.27;;
21624;SDS011;10974;51.034;3.744;2024-02-21T07:53:27;10.40;;;4.90;;
21624;SDS011;10974;51.034;3.744;2024-02-21T07:55:53;8.93;;;4.87;;
21624;SDS011;10974;51.034;3.744;2024-02-21T07:58:19;10.27;;;4.70;;
21624;SDS011;10974;51.034;3.744;2024-02-21T08:00:45;8.10;;;4.63;;
21624;SDS011;10974;51.034;3.744;2024-02-21T08:03:11;6.47;;;4.60;;
21624;SDS011;10974;51.034;3.744;2024-02-21T08:05:38;11.10;;;5.67;;
21624;SDS011;10974;51.034;3.744;2024-02-21T08:08:04;8.67;;;4.53;;
21624;SDS011;10974;51.034;3.744;2024-02-21T08:10:30;9.47;;;5.20;;
21624;SDS011;10974;51.034;3.744;2024-02-21T08:12:56;6.23;;;4.80;;
21624;SDS011;10974;51.034;3.744;2024-02-21T08:15:22;9.80;;;4.63;;
21624;SDS011;10974;51.034;3.744;2024-02-21T08:17:53;7.23;;;4.00;;
21624;SDS011;10974;51.034;3.744;2024-02-21T08:20:23;10.23;;;4.97;;
21624;SDS011;10974;51.034;3.744;2024-02-21T08:22:50;6.30;;;4.30;;
21624;SDS011;10974;51.034;3.744;2024-02-21T08:25:16;10.40;;;5.50;;
21624;SDS011;10974;51.034;3.744;2024-02-21T08:27:42;8.40;;;4.73;;
21624;SDS011;10974;51.034;3.744;2024-02-21T08:30:08;8.30;;;4.37;;
21624;SDS011;10974;51.034;3.744;2024-02-21T08:32:34;8.37;;;4.43;;
21624;SDS011;10974;51.034;3.744;2024-02-21T08:35:01;9.60;;;5.20;;
21624;SDS011;10974;51.034;3.744;2024-02-21T08:37:28;13.10;;;5.00;;
21624;SDS011;10974;51.034;3.744;2024-02-21T08:39:54;9.40;;;5.20;;
21624;SDS011;10974;51.034;3.744;2024-02-21T08:42:20;9.53;;;5.00;;
21624;SDS011;10974;51.034;3.744;2024-02-21T08:44:46;8.60;;;5.23;;
21624;SDS011;10974;51.034;3.744;2024-02-21T08:47:12;10.43;;;5.03;;
21624;SDS011;10974;51.034;3.744;2024-02-21T08:49:38;7.60;;;5.10;;
21624;SDS011;10974;51.034;3.744;2024-02-21T08:52:04;14.00;;;5.40;;
21624;SDS011;10974;51.034;3.744;2024-02-21T08:54:30;10.67;;;5.20;;
21624;SDS011;10974;51.034;3.744;2024-02-21T08:56:58;12.70;;;5.83;;
21624;SDS011;10974;51.034;3.744;2024-02-21T08:59:24;11.50;;;6.00;;
21624;SDS011;10974;51.034;3.744;2024-02-21T09:01:51;9.10;;;6.63;;
21624;SDS011;10974;51.034;3.744;2024-02-21T09:04:20;10.13;;;6.37;;
21624;SDS011;10974;51.034;3.744;2024-02-21T09:06:46;9.20;;;6.33;;
21624;SDS011;10974;51.034;3.744;2024-02-21T09:09:12;9.83;;;6.23;;
21624;SDS011;10974;51.034;3.744;2024-02-21T09:11:38;11.73;;;6.40;;
21624;SDS011;10974;51.034;3.744;2024-02-21T09:14:05;6.20;;;5.60;;
21624;SDS011;10974;51.034;3.744;2024-02-21T09:16:32;7.70;;;5.60;;
21624;SDS011;10974;51.034;3.744;2024-02-21T09:18:58;7.83;;;6.10;;
21624;SDS011;10974;51.034;3.744;2024-02-21T09:21:25;7.20;;;5.23;;
21624;SDS011;10974;51.034;3.744;2024-02-21T09:23:53;7.40;;;5.70;;
21624;SDS011;10974;51.034;3.744;2024-02-21T09:26:19;8.87;;;5.67;;
21624;SDS011;10974;51.034;3.744;2024-02-21T09:28:45;8.90;;;5.37;;
21624;SDS011;10974;51.034;3.744;2024-02-21T09:31:11;10.10;;;5.17;;
21624;SDS011;10974;51.034;3.744;2024-02-21T09:33:37;8.57;;;5.37;;
21624;SDS011;10974;51.034;3.744;2024-02-21T09:36:04;7.60;;;5.37;;
21624;SDS011;10974;51.034;3.744;2024-02-21T09:38:33;7.20;;;5.77;;
21624;SDS011;10974;51.034;3.744;2024-02-21T09:40:59;9.33;;;5.33;;
21624;SDS011;10974;51.034;3.744;2024-02-21T09:43:26;8.07;;;4.87;;
21624;SDS011;10974;51.034;3.744;2024-02-21T09:45:52;8.10;;;4.73;;
21624;SDS011;10974;51.034;3.744;2024-02-21T09:48:30;7.23;;;5.03;;
21624;SDS011;10974;51.034;3.744;2024-02-21T09:51:00;8.83;;;5.70;;
21624;SDS011;10974;51.034;3.744;2024-02-21T09:53:28;8.60;;;5.50;;
21624;SDS011;10974;51.034;3.744;2024-02-21T09:55:56;8.40;;;5.43;;
21624;SDS011;10974;51.034;3.744;2024-02-21T09:58:23;7.20;;;5.40;;
21624;SDS011;10974;51.034;3.744;2024-02-21T10:00:51;8.60;;;5.60;;
21624;SDS011;10974;51.034;3.744;2024-02-21T10:03:17;8.70;;;4.73;;
21624;SDS011;10974;51.034;3.744;2024-02-21T10:05:46;8.50;;;4.60;;
21624;SDS011;10974;51.034;3.744;2024-02-21T10:08:13;7.87;;;4.70;;
21624;SDS011;10974;51.034;3.744;2024-02-21T10:10:43;7.30;;;4.27;;
21624;SDS011;10974;51.034;3.744;2024-02-21T10:13:10;8.37;;;4.50;;
21624;SDS011;10974;51.034;3.744;2024-02-21T10:15:36;6.97;;;4.10;;
21624;SDS011;10974;51.034;3.744;2024-02-21T10:18:02;8.47;;;4.53;;
21624;SDS011;10974;51.034;3.744;2024-02-21T10:20:29;9.07;;;4.10;;
21624;SDS011;10974;51.034;3.744;2024-02-21T10:23:04;9.60;;;3.80;;
21624;SDS011;10974;51.034;3.744;2024-02-21T10:25:37;6.13;;;3.90;;
21624;SDS011;10974;51.034;3.744;2024-02-21T10:28:13;10.33;;;4.07;;
21624;SDS011;10974;51.034;3.744;2024-02-21T10:30:49;5.67;;;4.17;;
21624;SDS011;10974;51.034;3.744;2024-02-21T10:33:15;11.60;;;4.37;;
21624;SDS011;10974;51.034;3.744;2024-02-21T10:35:41;7.83;;;4.37;;
21624;SDS011;10974;51.034;3.744;2024-02-21T10:38:07;11.83;;;4.37;;
21624;SDS011;10974;51.034;3.744;2024-02-21T10:40:33;5.27;;;3.73;;
21624;SDS011;10974;51.034;3.744;2024-02-21T10:43:00;6.63;;;4.00;;
21624;SDS011;10974;51.034;3.744;2024-02-21T10:45:30;8.83;;;4.37;;
21624;SDS011;10974;51.034;3.744;2024-02-21T10:48:01;9.87;;;4.43;;
21624;SDS011;10974;51.034;3.744;2024-02-21T10:50:31;7.53;;;4.50;;
21624;SDS011;10974;51.034;3.744;2024-02-21T10:54:10;6.17;;;3.70;;
21624;SDS011;10974;51.034;3.744;2024-02-21T10:55:58;10.60;;;3.90;;
21624;SDS011;10974;51.034;3.744;2024-02-21T10:58:28;7.90;;;3.87;;
21624;SDS011;10974;51.034;3.744;2024-02-21T11:00:55;6.33;;;3.90;;
21624;SDS011;10974;51.034;3.744;2024-02-21T11:03:21;7.53;;;3.60;;
21624;SDS011;10974;51.034;3.744;2024-02-21T11:05:48;5.90;;;4.33;;
21624;SDS011;10974;51.034;3.744;2024-02-21T11:08:14;9.27;;;4.30;;
21624;SDS011;10974;51.034;3.744;2024-02-21T11:10:45;7.13;;;4.40;;
21624;SDS011;10974;51.034;3.744;2024-02-21T11:13:11;5.97;;;4.10;;
21624;SDS011;10974;51.034;3.744;2024-02-21T11:15:38;6.37;;;4.30;;
21624;SDS011;10974;51.034;3.744;2024-02-21T11:18:04;7.50;;;5.10;;
21624;SDS011;10974;51.034;3.744;2024-02-21T11:20:37;7.30;;;4.70;;
21624;SDS011;10974;51.034;3.744;2024-02-21T11:23:03;8.53;;;4.47;;
21624;SDS011;10974;51.034;3.744;2024-02-21T11:25:30;7.17;;;4.80;;
21624;SDS011;10974;51.034;3.744;2024-02-21T11:28:01;8.00;;;4.33;;
21624;SDS011;10974;51.034;3.744;2024-02-21T11:30:29;5.60;;;3.90;;
21624;SDS011;10974;51.034;3.744;2024-02-21T11:33:01;5.03;;;3.97;;
21624;SDS011;10974;51.034;3.744;2024-02-21T11:35:31;6.30;;;4.10;;
21624;SDS011;10974;51.034;3.744;2024-02-21T11:38:19;5.80;;;4.50;;
21624;SDS011;10974;51.034;3.744;2024-02-21T11:40:47;7.47;;;4.33;;
21624;SDS011;10974;51.034;3.744;2024-02-21T11:43:14;7.13;;;4.63;;
21624;SDS011;10974;51.034;3.744;2024-02-21T11:45:40;7.33;;;4.63;;
21624;SDS011;10974;51.034;3.744;2024-02-21T11:48:07;6.03;;;4.43;;
21624;SDS011;10974;51.034;3.744;2024-02-21T11:50:36;7.30;;;4.40;;
21624;SDS011;10974;51.034;3.744;2024-02-21T11:53:04;6.40;;;4.17;;
21624;SDS011;10974;51.034;3.744;2024-02-21T11:55:32;6.63;;;4.60;;
21624;SDS011;10974;51.034;3.744;2024-02-21T11:57:59;8.73;;;4.67;;
21624;SDS011;10974;51.034;3.744;2024-02-21T12:00:25;6.03;;;4.50;;
21624;SDS011;10974;51.034;3.744;2024-02-21T12:02:51;10.63;;;4.63;;
21624;SDS011;10974;51.034;3.744;2024-02-21T12:05:20;6.40;;;4.60;;
21624;SDS011;10974;51.034;3.744;2024-02-21T12:07:46;7.00;;;4.43;;
21624;SDS011;10974;51.034;3.744;2024-02-21T12:10:15;5.43;;;4.13;;
21624;SDS011;10974;51.034;3.744;2024-02-21T12:12:45;7.90;;;4.63;;
21624;SDS011;10974;51.034;3.744;2024-02-21T12:15:11;6.20;;;4.50;;
21624;SDS011;10974;51.034;3.744;2024-02-21T12:17:37;8.47;;;4.90;;
21624;SDS011;10974;51.034;3.744;2024-02-21T12:20:05;6.30;;;3.57;;
21624;SDS011;10974;51.034;3.744;2024-02-21T12:22:35;5.20;;;4.70;;
21624;SDS011;10974;51.034;3.744;2024-02-21T12:25:04;4.40;;;3.60;;
21624;SDS011;10974;51.034;3.744;2024-02-21T12:27:32;6.23;;;4.07;;
21624;SDS011;10974;51.034;3.744;2024-02-21T12:29:58;4.23;;;3.30;;
21624;SDS011;10974;51.034;3.744;2024-02-21T12:32:24;4.80;;;3.00;;
21624;SDS011;10974;51.034;3.744;2024-02-21T12:34:50;6.07;;;4.37;;
21624;SDS011;10974;51.034;3.744;2024-02-21T12:37:17;4.90;;;3.47;;
21624;SDS011;10974;51.034;3.744;2024-02-21T12:39:44;9.97;;;3.60;;
21624;SDS011;10974;51.034;3.744;2024-02-21T12:42:10;6.50;;;3.87;;
21624;SDS011;10974;51.034;3.744;2024-02-21T12:44:37;6.13;;;3.57;;
21624;SDS011;10974;51.034;3.744;2024-02-21T12:47:03;5.60;;;3.67;;
21624;SDS011;10974;51.034;3.744;2024-02-21T12:49:29;6.13;;;3.60;;
21624;SDS011;10974;51.034;3.744;2024-02-21T12:51:55;7.30;;;3.87;;
21624;SDS011;10974;51.034;3.744;2024-02-21T12:54:21;5.80;;;4.67;;
21624;SDS011;10974;51.034;3.744;2024-02-21T12:56:47;5.90;;;4.07;;
21624;SDS011;10974;51.034;3.744;2024-02-21T12:59:13;4.17;;;3.40;;
21624;SDS011;10974;51.034;3.744;2024-02-21T13:01:39;6.30;;;4.47;;
21624;SDS011;10974;51.034;3.744;2024-02-21T13:04:05;5.10;;;3.77;;
21624;SDS011;10974;51.034;3.744;2024-02-21T13:06:31;4.07;;;3.67;;
21624;SDS011;10974;51.034;3.744;2024-02-21T13:08:57;5.60;;;3.70;;
21624;SDS011;10974;51.034;3.744;2024-02-21T13:11:24;6.47;;;3.80;;
21624;SDS011;10974;51.034;3.744;2024-02-21T13:13:53;6.40;;;3.70;;
21624;SDS011;10974;51.034;3.744;2024-02-21T13:16:19;7.07;;;3.10;;
21624;SDS011;10974;51.034;3.744;2024-02-21T13:18:45;9.10;;;3.90;;
21624;SDS011;10974;51.034;3.744;2024-02-21T13:21:12;4.80;;;3.63;;
21624;SDS011;10974;51.034;3.744;2024-02-21T13:23:39;4.33;;;2.90;;
21624;SDS011;10974;51.034;3.744;2024-02-21T13:26:05;5.17;;;3.57;;
21624;SDS011;10974;51.034;3.744;2024-02-21T13:28:31;9.50;;;3.77;;
21624;SDS011;10974;51.034;3.744;2024-02-21T13:30:57;3.60;;;2.87;;
21624;SDS011;10974;51.034;3.744;2024-02-21T13:33:23;4.20;;;3.20;;
21624;SDS011;10974;51.034;3.744;2024-02-21T13:35:49;4.60;;;3.27;;
21624;SDS011;10974;51.034;3.744;2024-02-21T13:38:15;5.90;;;3.17;;
21624;SDS011;10974;51.034;3.744;2024-02-21T13:40:43;3.53;;;3.13;;
21624;SDS011;10974;51.034;3.744;2024-02-21T13:43:10;6.97;;;3.50;;
21624;SDS011;10974;51.034;3.744;2024-02-21T13:45:36;6.30;;;3.20;;
21624;SDS011;10974;51.034;3.744;2024-02-21T13:48:02;4.73;;;3.70;;
21624;SDS011;10974;51.034;3.744;2024-02-21T13:50:31;6.10;;;3.23;;
21624;SDS011;10974;51.034;3.744;2024-02-21T13:52:59;4.00;;;3.30;;
21624;SDS011;10974;51.034;3.744;2024-02-21T13:55:26;8.90;;;3.00;;
21624;SDS011;10974;51.034;3.744;2024-02-21T13:57:52;5.47;;;3.40;;
21624;SDS011;10974;51.034;3.744;2024-02-21T14:00:18;4.10;;;3.23;;
21624;SDS011;10974;51.034;3.744;2024-02-21T14:02:46;4.10;;;3.20;;
21624;SDS011;10974;51.034;3.744;2024-02-21T14:05:12;8.50;;;3.73;;
21624;SDS011;10974;51.034;3.744;2024-02-21T14:07:39;5.03;;;3.00;;
21624;SDS011;10974;51.034;3.744;2024-02-21T14:10:05;6.13;;;3.43;;
21624;SDS011;10974;51.034;3.744;2024-02-21T14:12:32;7.37;;;3.57;;
21624;SDS011;10974;51.034;3.744;2024-02-21T14:14:58;7.03;;;3.07;;
21624;SDS011;10974;51.034;3.744;2024-02-21T14:17:24;6.90;;;3.23;;
21624;SDS011;10974;51.034;3.744;2024-02-21T14:19:50;5.90;;;3.70;;
21624;SDS011;10974;51.034;3.744;2024-02-21T14:22:19;4.30;;;3.50;;
21624;SDS011;10974;51.034;3.744;2024-02-21T14:24:45;7.03;;;3.77;;
21624;SDS011;10974;51.034;3.744;2024-02-21T14:27:11;6.53;;;3.57;;
21624;SDS011;10974;51.034;3.744;2024-02-21T14:29:38;4.73;;;3.40;;
21624;SDS011;10974;51.034;3.744;2024-02-21T14:32:04;4.07;;;3.30;;
21624;SDS011;10974;51.034;3.744;2024-02-21T14:34:31;6.10;;;3.47;;
21624;SDS011;10974;51.034;3.744;2024-02-21T14:36:57;4.30;;;3.40;;
21624;SDS011;10974;51.034;3.744;2024-02-21T14:39:23;3.63;;;3.20;;
21624;SDS011;10974;51.034;3.744;2024-02-21T14:41:49;4.80;;;3.47;;
21624;SDS011;10974;51.034;3.744;2024-02-21T14:44:15;6.50;;;3.30;;
21624;SDS011;10974;51.034;3.744;2024-02-21T14:46:42;11.43;;;3.53;;